sensor_id;sensor_type;location;lat;lon;timestamp;P1;durP1;ratioP1;P2;durP2;ratioP2
72286;SDS011;60221;45.696;16.076;2022-08-27T00:00:45;11.13;;;4.73;;
72286;SDS011;60221;45.696;16.076;2022-08-27T00:03:12;15.95;;;5.20;;
72286;SDS011;60221;45.696;16.076;2022-08-27T00:05:38;12.70;;;5.58;;
72286;SDS011;60221;45.696;16.076;2022-08-27T00:08:05;9.70;;;5.03;;
72286;SDS011;60221;45.696;16.076;2022-08-27T00:10:34;13.40;;;5.97;;
72286;SDS011;60221;45.696;16.076;2022-08-27T00:13:01;9.73;;;4.10;;
72286;SDS011;60221;45.696;16.076;2022-08-27T00:15:27;13.08;;;5.10;;
72286;SDS011;60221;45.696;16.076;2022-08-27T00:17:55;11.63;;;4.83;;
72286;SDS011;60221;45.696;16.076;2022-08-27T00:20:23;10.05;;;5.30;;
72286;SDS011;60221;45.696;16.076;2022-08-27T00:22:51;11.10;;;4.87;;
72286;SDS011;60221;45.696;16.076;2022-08-27T00:25:19;11.13;;;4.80;;
72286;SDS011;60221;45.696;16.076;2022-08-27T00:27:47;9.13;;;4.83;;
72286;SDS011;60221;45.696;16.076;2022-08-27T00:30:14;11.73;;;5.12;;
72286;SDS011;60221;45.696;16.076;2022-08-27T00:32:43;10.40;;;5.08;;
72286;SDS011;60221;45.696;16.076;2022-08-27T00:35:10;14.55;;;4.95;;
72286;SDS011;60221;45.696;16.076;2022-08-27T00:37:40;12.43;;;5.23;;
72286;SDS011;60221;45.696;16.076;2022-08-27T00:40:09;14.55;;;5.60;;
72286;SDS011;60221;45.696;16.076;2022-08-27T00:42:39;13.48;;;5.80;;
72286;SDS011;60221;45.696;16.076;2022-08-27T00:45:07;11.93;;;5.90;;
72286;SDS011;60221;45.696;16.076;2022-08-27T00:47:36;12.00;;;5.65;;
72286;SDS011;60221;45.696;16.076;2022-08-27T00:50:08;12.30;;;5.63;;
72286;SDS011;60221;45.696;16.076;2022-08-27T00:52:44;12.75;;;6.03;;
72286;SDS011;60221;45.696;16.076;2022-08-27T00:55:14;9.53;;;4.97;;
72286;SDS011;60221;45.696;16.076;2022-08-27T00:57:46;14.03;;;5.22;;
72286;SDS011;60221;45.696;16.076;2022-08-27T01:00:17;11.70;;;5.67;;
72286;SDS011;60221;45.696;16.076;2022-08-27T01:02:45;12.43;;;5.70;;
72286;SDS011;60221;45.696;16.076;2022-08-27T01:05:16;9.18;;;4.92;;
72286;SDS011;60221;45.696;16.076;2022-08-27T01:07:48;13.70;;;5.10;;
72286;SDS011;60221;45.696;16.076;2022-08-27T01:10:18;14.28;;;5.53;;
72286;SDS011;60221;45.696;16.076;2022-08-27T01:12:48;10.32;;;5.53;;
72286;SDS011;60221;45.696;16.076;2022-08-27T01:15:17;10.97;;;5.03;;
72286;SDS011;60221;45.696;16.076;2022-08-27T01:17:44;10.20;;;5.10;;
72286;SDS011;60221;45.696;16.076;2022-08-27T01:20:22;11.10;;;5.50;;
72286;SDS011;60221;45.696;16.076;2022-08-27T01:25:34;11.48;;;5.50;;
72286;SDS011;60221;45.696;16.076;2022-08-27T01:28:02;12.70;;;5.83;;
72286;SDS011;60221;45.696;16.076;2022-08-27T01:30:31;13.45;;;5.50;;
72286;SDS011;60221;45.696;16.076;2022-08-27T01:32:57;11.48;;;5.03;;
72286;SDS011;60221;45.696;16.076;2022-08-27T01:35:24;9.38;;;5.08;;
72286;SDS011;60221;45.696;16.076;2022-08-27T01:37:52;11.25;;;5.50;;
72286;SDS011;60221;45.696;16.076;2022-08-27T01:40:19;14.80;;;5.23;;
72286;SDS011;60221;45.696;16.076;2022-08-27T01:42:48;16.87;;;5.35;;
72286;SDS011;60221;45.696;16.076;2022-08-27T01:45:26;15.00;;;5.60;;
72286;SDS011;60221;45.696;16.076;2022-08-27T01:47:52;12.95;;;6.45;;
72286;SDS011;60221;45.696;16.076;2022-08-27T01:50:20;9.98;;;5.92;;
72286;SDS011;60221;45.696;16.076;2022-08-27T01:52:53;10.47;;;5.67;;
72286;SDS011;60221;45.696;16.076;2022-08-27T01:55:22;11.35;;;5.83;;
72286;SDS011;60221;45.696;16.076;2022-08-27T01:57:51;10.90;;;5.58;;
72286;SDS011;60221;45.696;16.076;2022-08-27T02:00:21;14.70;;;5.70;;
72286;SDS011;60221;45.696;16.076;2022-08-27T02:02:50;12.70;;;6.42;;
72286;SDS011;60221;45.696;16.076;2022-08-27T02:05:17;13.50;;;6.30;;
72286;SDS011;60221;45.696;16.076;2022-08-27T02:07:44;15.78;;;6.05;;
72286;SDS011;60221;45.696;16.076;2022-08-27T02:10:13;10.95;;;5.62;;
72286;SDS011;60221;45.696;16.076;2022-08-27T02:12:44;10.13;;;5.55;;
72286;SDS011;60221;45.696;16.076;2022-08-27T02:15:11;14.50;;;6.50;;
72286;SDS011;60221;45.696;16.076;2022-08-27T02:17:37;10.47;;;5.37;;
72286;SDS011;60221;45.696;16.076;2022-08-27T02:20:05;15.88;;;5.70;;
72286;SDS011;60221;45.696;16.076;2022-08-27T02:22:35;14.05;;;5.45;;
72286;SDS011;60221;45.696;16.076;2022-08-27T02:25:03;13.35;;;5.53;;
72286;SDS011;60221;45.696;16.076;2022-08-27T02:27:32;17.17;;;6.37;;
72286;SDS011;60221;45.696;16.076;2022-08-27T02:29:58;12.37;;;5.80;;
72286;SDS011;60221;45.696;16.076;2022-08-27T02:32:25;13.20;;;5.78;;
72286;SDS011;60221;45.696;16.076;2022-08-27T02:34:53;10.00;;;5.62;;
72286;SDS011;60221;45.696;16.076;2022-08-27T02:37:20;15.15;;;5.40;;
72286;SDS011;60221;45.696;16.076;2022-08-27T02:39:47;15.55;;;6.00;;
72286;SDS011;60221;45.696;16.076;2022-08-27T02:42:14;11.60;;;5.80;;
72286;SDS011;60221;45.696;16.076;2022-08-27T02:44:40;12.35;;;5.03;;
72286;SDS011;60221;45.696;16.076;2022-08-27T02:47:06;13.65;;;5.12;;
72286;SDS011;60221;45.696;16.076;2022-08-27T02:49:32;12.10;;;6.28;;
72286;SDS011;60221;45.696;16.076;2022-08-27T02:51:58;11.70;;;5.83;;
72286;SDS011;60221;45.696;16.076;2022-08-27T02:54:25;13.27;;;5.67;;
72286;SDS011;60221;45.696;16.076;2022-08-27T02:56:52;11.75;;;5.25;;
72286;SDS011;60221;45.696;16.076;2022-08-27T02:59:20;13.65;;;5.83;;
72286;SDS011;60221;45.696;16.076;2022-08-27T03:01:47;15.32;;;5.75;;
72286;SDS011;60221;45.696;16.076;2022-08-27T03:04:15;9.68;;;5.35;;
72286;SDS011;60221;45.696;16.076;2022-08-27T03:06:44;13.33;;;5.43;;
72286;SDS011;60221;45.696;16.076;2022-08-27T03:09:12;10.60;;;4.97;;
72286;SDS011;60221;45.696;16.076;2022-08-27T03:11:38;13.38;;;5.15;;
72286;SDS011;60221;45.696;16.076;2022-08-27T03:14:06;9.40;;;5.72;;
72286;SDS011;60221;45.696;16.076;2022-08-27T03:16:33;12.18;;;5.22;;
72286;SDS011;60221;45.696;16.076;2022-08-27T03:19:02;13.67;;;6.23;;
72286;SDS011;60221;45.696;16.076;2022-08-27T03:21:31;9.38;;;4.75;;
72286;SDS011;60221;45.696;16.076;2022-08-27T03:24:00;12.23;;;5.25;;
72286;SDS011;60221;45.696;16.076;2022-08-27T03:26:28;12.47;;;5.00;;
72286;SDS011;60221;45.696;16.076;2022-08-27T03:28:56;11.48;;;5.45;;
72286;SDS011;60221;45.696;16.076;2022-08-27T03:31:24;10.23;;;5.80;;
72286;SDS011;60221;45.696;16.076;2022-08-27T03:33:53;10.53;;;5.12;;
72286;SDS011;60221;45.696;16.076;2022-08-27T03:36:27;11.80;;;5.10;;
72286;SDS011;60221;45.696;16.076;2022-08-27T03:38:55;9.38;;;4.70;;
72286;SDS011;60221;45.696;16.076;2022-08-27T03:41:23;12.58;;;5.53;;
72286;SDS011;60221;45.696;16.076;2022-08-27T03:43:50;10.30;;;5.33;;
72286;SDS011;60221;45.696;16.076;2022-08-27T03:46:20;19.35;;;5.80;;
72286;SDS011;60221;45.696;16.076;2022-08-27T03:48:47;11.08;;;5.47;;
72286;SDS011;60221;45.696;16.076;2022-08-27T03:51:14;13.03;;;5.62;;
72286;SDS011;60221;45.696;16.076;2022-08-27T03:53:41;8.78;;;4.92;;
72286;SDS011;60221;45.696;16.076;2022-08-27T03:56:09;7.43;;;4.83;;
72286;SDS011;60221;45.696;16.076;2022-08-27T03:58:35;13.75;;;5.03;;
72286;SDS011;60221;45.696;16.076;2022-08-27T04:01:04;12.10;;;5.20;;
72286;SDS011;60221;45.696;16.076;2022-08-27T04:03:33;12.58;;;4.95;;
72286;SDS011;60221;45.696;16.076;2022-08-27T04:06:00;12.60;;;5.08;;
72286;SDS011;60221;45.696;16.076;2022-08-27T04:08:28;17.10;;;5.00;;
72286;SDS011;60221;45.696;16.076;2022-08-27T04:10:54;8.78;;;4.50;;
72286;SDS011;60221;45.696;16.076;2022-08-27T04:13:21;8.58;;;4.53;;
72286;SDS011;60221;45.696;16.076;2022-08-27T04:15:49;9.88;;;4.55;;
72286;SDS011;60221;45.696;16.076;2022-08-27T04:18:19;9.53;;;4.97;;
72286;SDS011;60221;45.696;16.076;2022-08-27T04:20:45;10.07;;;4.40;;
72286;SDS011;60221;45.696;16.076;2022-08-27T04:23:14;9.05;;;4.90;;
72286;SDS011;60221;45.696;16.076;2022-08-27T04:25:41;10.38;;;5.58;;
72286;SDS011;60221;45.696;16.076;2022-08-27T04:28:10;9.47;;;5.10;;
72286;SDS011;60221;45.696;16.076;2022-08-27T04:30:38;9.20;;;4.50;;
72286;SDS011;60221;45.696;16.076;2022-08-27T04:33:12;11.38;;;6.00;;
72286;SDS011;60221;45.696;16.076;2022-08-27T04:35:39;8.85;;;4.60;;
72286;SDS011;60221;45.696;16.076;2022-08-27T04:38:06;10.23;;;5.40;;
72286;SDS011;60221;45.696;16.076;2022-08-27T04:40:32;11.20;;;5.03;;
72286;SDS011;60221;45.696;16.076;2022-08-27T04:43:20;10.25;;;5.10;;
72286;SDS011;60221;45.696;16.076;2022-08-27T04:45:47;11.10;;;5.00;;
72286;SDS011;60221;45.696;16.076;2022-08-27T04:48:16;13.18;;;5.80;;
72286;SDS011;60221;45.696;16.076;2022-08-27T04:50:44;10.95;;;5.65;;
72286;SDS011;60221;45.696;16.076;2022-08-27T04:53:13;11.13;;;5.73;;
72286;SDS011;60221;45.696;16.076;2022-08-27T04:55:44;11.20;;;5.40;;
72286;SDS011;60221;45.696;16.076;2022-08-27T04:58:15;16.48;;;6.55;;
72286;SDS011;60221;45.696;16.076;2022-08-27T05:00:44;10.38;;;5.30;;
72286;SDS011;60221;45.696;16.076;2022-08-27T05:03:16;13.62;;;6.22;;
72286;SDS011;60221;45.696;16.076;2022-08-27T05:05:48;10.20;;;6.03;;
72286;SDS011;60221;45.696;16.076;2022-08-27T05:08:16;12.95;;;6.05;;
72286;SDS011;60221;45.696;16.076;2022-08-27T05:10:43;17.67;;;7.00;;
72286;SDS011;60221;45.696;16.076;2022-08-27T05:13:13;11.30;;;5.60;;
72286;SDS011;60221;45.696;16.076;2022-08-27T05:15:42;11.00;;;6.47;;
72286;SDS011;60221;45.696;16.076;2022-08-27T05:18:09;16.93;;;6.10;;
72286;SDS011;60221;45.696;16.076;2022-08-27T05:20:48;16.87;;;6.83;;
72286;SDS011;60221;45.696;16.076;2022-08-27T05:23:14;16.12;;;6.70;;
72286;SDS011;60221;45.696;16.076;2022-08-27T05:25:43;14.30;;;6.50;;
72286;SDS011;60221;45.696;16.076;2022-08-27T05:28:12;12.45;;;6.90;;
72286;SDS011;60221;45.696;16.076;2022-08-27T05:30:43;15.00;;;7.10;;
72286;SDS011;60221;45.696;16.076;2022-08-27T05:33:12;10.85;;;6.67;;
72286;SDS011;60221;45.696;16.076;2022-08-27T05:35:43;15.35;;;7.10;;
72286;SDS011;60221;45.696;16.076;2022-08-27T05:38:15;10.95;;;6.92;;
72286;SDS011;60221;45.696;16.076;2022-08-27T05:40:43;11.85;;;6.85;;
72286;SDS011;60221;45.696;16.076;2022-08-27T05:43:10;11.53;;;7.30;;
72286;SDS011;60221;45.696;16.076;2022-08-27T05:45:41;15.20;;;7.03;;
72286;SDS011;60221;45.696;16.076;2022-08-27T05:48:12;10.30;;;6.58;;
72286;SDS011;60221;45.696;16.076;2022-08-27T05:50:41;14.05;;;7.15;;
72286;SDS011;60221;45.696;16.076;2022-08-27T05:53:09;15.55;;;6.58;;
72286;SDS011;60221;45.696;16.076;2022-08-27T05:55:38;13.13;;;7.40;;
72286;SDS011;60221;45.696;16.076;2022-08-27T05:58:09;13.70;;;7.60;;
72286;SDS011;60221;45.696;16.076;2022-08-27T06:00:40;13.45;;;7.65;;
72286;SDS011;60221;45.696;16.076;2022-08-27T06:03:24;13.68;;;7.37;;
72286;SDS011;60221;45.696;16.076;2022-08-27T06:05:58;10.88;;;6.40;;
72286;SDS011;60221;45.696;16.076;2022-08-27T06:08:30;13.17;;;6.33;;
72286;SDS011;60221;45.696;16.076;2022-08-27T06:10:58;15.05;;;7.10;;
72286;SDS011;60221;45.696;16.076;2022-08-27T06:13:26;13.28;;;7.40;;
72286;SDS011;60221;45.696;16.076;2022-08-27T06:16:04;11.83;;;5.78;;
72286;SDS011;60221;45.696;16.076;2022-08-27T06:18:35;12.80;;;7.30;;
72286;SDS011;60221;45.696;16.076;2022-08-27T06:21:03;11.57;;;6.00;;
72286;SDS011;60221;45.696;16.076;2022-08-27T06:23:30;10.80;;;6.65;;
72286;SDS011;60221;45.696;16.076;2022-08-27T06:25:57;13.65;;;7.95;;
72286;SDS011;60221;45.696;16.076;2022-08-27T06:28:25;12.93;;;7.10;;
72286;SDS011;60221;45.696;16.076;2022-08-27T06:31:03;15.98;;;8.60;;
72286;SDS011;60221;45.696;16.076;2022-08-27T06:33:36;12.00;;;6.67;;
72286;SDS011;60221;45.696;16.076;2022-08-27T06:36:05;11.78;;;6.35;;
72286;SDS011;60221;45.696;16.076;2022-08-27T06:38:36;14.87;;;7.10;;
72286;SDS011;60221;45.696;16.076;2022-08-27T06:41:04;20.92;;;10.30;;
72286;SDS011;60221;45.696;16.076;2022-08-27T06:43:36;20.95;;;9.10;;
72286;SDS011;60221;45.696;16.076;2022-08-27T06:46:06;25.87;;;12.00;;
72286;SDS011;60221;45.696;16.076;2022-08-27T06:48:37;10.93;;;6.90;;
72286;SDS011;60221;45.696;16.076;2022-08-27T06:51:06;16.02;;;7.87;;
72286;SDS011;60221;45.696;16.076;2022-08-27T06:53:37;16.00;;;7.42;;
72286;SDS011;60221;45.696;16.076;2022-08-27T06:56:05;12.40;;;7.12;;
72286;SDS011;60221;45.696;16.076;2022-08-27T06:58:33;10.20;;;6.83;;
72286;SDS011;60221;45.696;16.076;2022-08-27T07:01:00;9.85;;;6.40;;
72286;SDS011;60221;45.696;16.076;2022-08-27T07:03:43;11.70;;;6.45;;
72286;SDS011;60221;45.696;16.076;2022-08-27T07:06:10;13.18;;;6.28;;
72286;SDS011;60221;45.696;16.076;2022-08-27T07:08:41;15.75;;;6.75;;
72286;SDS011;60221;45.696;16.076;2022-08-27T07:11:08;12.07;;;5.63;;
72286;SDS011;60221;45.696;16.076;2022-08-27T07:13:37;14.07;;;6.78;;
72286;SDS011;60221;45.696;16.076;2022-08-27T07:16:05;12.00;;;5.50;;
72286;SDS011;60221;45.696;16.076;2022-08-27T07:18:34;11.68;;;5.58;;
72286;SDS011;60221;45.696;16.076;2022-08-27T07:21:00;11.50;;;5.67;;
72286;SDS011;60221;45.696;16.076;2022-08-27T07:23:33;17.65;;;6.03;;
72286;SDS011;60221;45.696;16.076;2022-08-27T07:25:59;14.33;;;5.30;;
72286;SDS011;60221;45.696;16.076;2022-08-27T07:28:26;12.28;;;5.47;;
72286;SDS011;60221;45.696;16.076;2022-08-27T07:30:53;12.93;;;6.28;;
72286;SDS011;60221;45.696;16.076;2022-08-27T07:33:20;9.63;;;4.70;;
72286;SDS011;60221;45.696;16.076;2022-08-27T07:35:46;14.80;;;7.12;;
72286;SDS011;60221;45.696;16.076;2022-08-27T07:38:13;12.05;;;5.65;;
72286;SDS011;60221;45.696;16.076;2022-08-27T07:40:41;11.77;;;5.60;;
72286;SDS011;60221;45.696;16.076;2022-08-27T07:43:07;18.35;;;5.28;;
72286;SDS011;60221;45.696;16.076;2022-08-27T07:45:53;13.18;;;6.20;;
72286;SDS011;60221;45.696;16.076;2022-08-27T07:48:21;11.57;;;5.20;;
72286;SDS011;60221;45.696;16.076;2022-08-27T07:50:49;12.10;;;6.10;;
72286;SDS011;60221;45.696;16.076;2022-08-27T07:53:16;10.53;;;5.00;;
72286;SDS011;60221;45.696;16.076;2022-08-27T07:55:44;12.00;;;4.87;;
72286;SDS011;60221;45.696;16.076;2022-08-27T07:58:11;15.50;;;5.15;;
72286;SDS011;60221;45.696;16.076;2022-08-27T08:00:40;13.55;;;5.33;;
72286;SDS011;60221;45.696;16.076;2022-08-27T08:03:08;9.53;;;5.75;;
72286;SDS011;60221;45.696;16.076;2022-08-27T08:05:40;9.13;;;4.93;;
72286;SDS011;60221;45.696;16.076;2022-08-27T08:08:08;10.85;;;5.40;;
72286;SDS011;60221;45.696;16.076;2022-08-27T08:10:36;15.45;;;5.75;;
72286;SDS011;60221;45.696;16.076;2022-08-27T08:13:05;12.28;;;5.83;;
72286;SDS011;60221;45.696;16.076;2022-08-27T08:15:32;12.50;;;5.42;;
72286;SDS011;60221;45.696;16.076;2022-08-27T08:18:00;7.67;;;4.33;;
72286;SDS011;60221;45.696;16.076;2022-08-27T08:20:26;17.50;;;5.75;;
72286;SDS011;60221;45.696;16.076;2022-08-27T08:22:52;11.20;;;5.97;;
72286;SDS011;60221;45.696;16.076;2022-08-27T08:25:21;10.68;;;5.40;;
72286;SDS011;60221;45.696;16.076;2022-08-27T08:27:48;10.78;;;6.00;;
72286;SDS011;60221;45.696;16.076;2022-08-27T08:30:14;10.53;;;5.30;;
72286;SDS011;60221;45.696;16.076;2022-08-27T08:32:40;10.98;;;5.30;;
72286;SDS011;60221;45.696;16.076;2022-08-27T08:35:08;11.20;;;5.10;;
72286;SDS011;60221;45.696;16.076;2022-08-27T08:37:35;14.68;;;4.65;;
72286;SDS011;60221;45.696;16.076;2022-08-27T08:40:03;9.93;;;4.53;;
72286;SDS011;60221;45.696;16.076;2022-08-27T08:45:06;12.53;;;4.35;;
72286;SDS011;60221;45.696;16.076;2022-08-27T08:50:18;11.25;;;4.30;;
72286;SDS011;60221;45.696;16.076;2022-08-27T08:52:53;13.03;;;5.00;;
72286;SDS011;60221;45.696;16.076;2022-08-27T08:55:34;12.70;;;5.40;;
72286;SDS011;60221;45.696;16.076;2022-08-27T08:58:18;13.28;;;4.45;;
72286;SDS011;60221;45.696;16.076;2022-08-27T09:00:59;9.78;;;4.62;;
72286;SDS011;60221;45.696;16.076;2022-08-27T09:03:31;13.43;;;5.22;;
72286;SDS011;60221;45.696;16.076;2022-08-27T09:06:07;11.77;;;5.20;;
72286;SDS011;60221;45.696;16.076;2022-08-27T09:08:50;12.82;;;5.17;;
72286;SDS011;60221;45.696;16.076;2022-08-27T09:16:50;11.33;;;5.05;;
72286;SDS011;60221;45.696;16.076;2022-08-27T09:19:17;14.90;;;5.33;;
72286;SDS011;60221;45.696;16.076;2022-08-27T09:21:47;11.43;;;5.10;;
72286;SDS011;60221;45.696;16.076;2022-08-27T09:27:31;9.38;;;4.97;;
72286;SDS011;60221;45.696;16.076;2022-08-27T09:30:04;12.18;;;4.47;;
72286;SDS011;60221;45.696;16.076;2022-08-27T09:32:33;11.43;;;4.90;;
72286;SDS011;60221;45.696;16.076;2022-08-27T09:35:04;14.03;;;5.37;;
72286;SDS011;60221;45.696;16.076;2022-08-27T09:37:32;15.20;;;4.92;;
72286;SDS011;60221;45.696;16.076;2022-08-27T09:42:45;11.10;;;5.05;;
72286;SDS011;60221;45.696;16.076;2022-08-27T09:45:19;9.53;;;4.27;;
72286;SDS011;60221;45.696;16.076;2022-08-27T09:50:35;15.43;;;4.80;;
72286;SDS011;60221;45.696;16.076;2022-08-27T09:53:16;11.22;;;4.42;;
72286;SDS011;60221;45.696;16.076;2022-08-27T09:55:55;10.50;;;4.28;;
72286;SDS011;60221;45.696;16.076;2022-08-27T09:58:33;14.37;;;5.43;;
72286;SDS011;60221;45.696;16.076;2022-08-27T10:04:09;11.03;;;4.67;;
72286;SDS011;60221;45.696;16.076;2022-08-27T10:06:46;13.45;;;4.35;;
72286;SDS011;60221;45.696;16.076;2022-08-27T10:09:15;12.50;;;5.28;;
72286;SDS011;60221;45.696;16.076;2022-08-27T10:14:42;9.35;;;4.33;;
72286;SDS011;60221;45.696;16.076;2022-08-27T10:22:39;16.23;;;4.92;;
72286;SDS011;60221;45.696;16.076;2022-08-27T10:25:49;13.83;;;4.53;;
72286;SDS011;60221;45.696;16.076;2022-08-27T10:40:28;11.03;;;3.60;;
72286;SDS011;60221;45.696;16.076;2022-08-27T10:46:13;9.33;;;3.58;;
72286;SDS011;60221;45.696;16.076;2022-08-27T10:52:02;10.25;;;4.50;;
72286;SDS011;60221;45.696;16.076;2022-08-27T10:54:58;11.23;;;4.63;;
72286;SDS011;60221;45.696;16.076;2022-08-27T11:00:34;10.80;;;4.30;;
72286;SDS011;60221;45.696;16.076;2022-08-27T11:03:06;12.73;;;4.28;;
72286;SDS011;60221;45.696;16.076;2022-08-27T11:05:44;10.98;;;4.45;;
72286;SDS011;60221;45.696;16.076;2022-08-27T11:11:01;14.60;;;4.53;;
72286;SDS011;60221;45.696;16.076;2022-08-27T11:16:19;12.30;;;3.77;;
72286;SDS011;60221;45.696;16.076;2022-08-27T11:18:53;11.12;;;3.83;;
72286;SDS011;60221;45.696;16.076;2022-08-27T11:21:31;12.00;;;4.10;;
72286;SDS011;60221;45.696;16.076;2022-08-27T11:27:02;10.25;;;3.90;;
72286;SDS011;60221;45.696;16.076;2022-08-27T11:29:53;16.52;;;4.60;;
72286;SDS011;60221;45.696;16.076;2022-08-27T11:32:28;16.75;;;3.60;;
72286;SDS011;60221;45.696;16.076;2022-08-27T11:34:59;8.40;;;4.30;;
72286;SDS011;60221;45.696;16.076;2022-08-27T11:43:19;11.78;;;4.22;;
72286;SDS011;60221;45.696;16.076;2022-08-27T11:45:54;12.15;;;4.10;;
72286;SDS011;60221;45.696;16.076;2022-08-27T11:48:27;13.90;;;4.43;;
72286;SDS011;60221;45.696;16.076;2022-08-27T11:50:58;12.47;;;4.28;;
72286;SDS011;60221;45.696;16.076;2022-08-27T11:53:34;7.97;;;3.85;;
72286;SDS011;60221;45.696;16.076;2022-08-27T11:56:32;8.90;;;4.20;;
72286;SDS011;60221;45.696;16.076;2022-08-27T11:58:45;15.43;;;4.90;;
72286;SDS011;60221;45.696;16.076;2022-08-27T12:01:24;10.50;;;4.13;;
72286;SDS011;60221;45.696;16.076;2022-08-27T12:04:06;14.63;;;4.55;;
72286;SDS011;60221;45.696;16.076;2022-08-27T12:07:00;12.03;;;3.87;;
72286;SDS011;60221;45.696;16.076;2022-08-27T12:10:04;8.58;;;4.45;;
72286;SDS011;60221;45.696;16.076;2022-08-27T12:12:43;11.08;;;3.95;;
72286;SDS011;60221;45.696;16.076;2022-08-27T12:15:45;7.90;;;4.03;;
72286;SDS011;60221;45.696;16.076;2022-08-27T12:18:48;10.98;;;4.30;;
72286;SDS011;60221;45.696;16.076;2022-08-27T12:24:42;13.98;;;4.05;;
72286;SDS011;60221;45.696;16.076;2022-08-27T12:32:49;13.15;;;5.20;;
72286;SDS011;60221;45.696;16.076;2022-08-27T12:35:19;16.05;;;4.83;;
72286;SDS011;60221;45.696;16.076;2022-08-27T12:37:57;13.25;;;4.67;;
72286;SDS011;60221;45.696;16.076;2022-08-27T12:40:51;10.00;;;4.20;;
72286;SDS011;60221;45.696;16.076;2022-08-27T12:43:24;9.90;;;4.97;;
72286;SDS011;60221;45.696;16.076;2022-08-27T12:48:30;12.33;;;5.47;;
72286;SDS011;60221;45.696;16.076;2022-08-27T12:51:02;12.28;;;4.80;;
72286;SDS011;60221;45.696;16.076;2022-08-27T12:53:46;7.53;;;3.87;;
72286;SDS011;60221;45.696;16.076;2022-08-27T13:05:39;18.45;;;5.33;;
72286;SDS011;60221;45.696;16.076;2022-08-27T13:10:51;12.77;;;4.73;;
72286;SDS011;60221;45.696;16.076;2022-08-27T13:13:19;10.18;;;5.00;;
72286;SDS011;60221;45.696;16.076;2022-08-27T13:15:53;9.25;;;4.33;;
72286;SDS011;60221;45.696;16.076;2022-08-27T13:18:22;15.58;;;5.17;;
72286;SDS011;60221;45.696;16.076;2022-08-27T13:20:50;9.15;;;4.62;;
72286;SDS011;60221;45.696;16.076;2022-08-27T13:23:30;8.87;;;4.50;;
72286;SDS011;60221;45.696;16.076;2022-08-27T13:26:07;14.85;;;5.35;;
72286;SDS011;60221;45.696;16.076;2022-08-27T13:28:36;13.70;;;5.92;;
72286;SDS011;60221;45.696;16.076;2022-08-27T13:31:06;12.88;;;5.28;;
72286;SDS011;60221;45.696;16.076;2022-08-27T13:33:35;11.50;;;4.87;;
72286;SDS011;60221;45.696;16.076;2022-08-27T13:36:05;12.77;;;5.17;;
72286;SDS011;60221;45.696;16.076;2022-08-27T13:38:40;14.30;;;5.30;;
72286;SDS011;60221;45.696;16.076;2022-08-27T13:41:06;11.88;;;4.80;;
72286;SDS011;60221;45.696;16.076;2022-08-27T13:43:53;13.95;;;4.90;;
72286;SDS011;60221;45.696;16.076;2022-08-27T13:46:23;10.50;;;4.83;;
72286;SDS011;60221;45.696;16.076;2022-08-27T13:48:54;12.70;;;4.77;;
72286;SDS011;60221;45.696;16.076;2022-08-27T13:51:33;12.95;;;5.17;;
72286;SDS011;60221;45.696;16.076;2022-08-27T13:54:01;12.65;;;4.72;;
72286;SDS011;60221;45.696;16.076;2022-08-27T13:59:24;15.48;;;4.45;;
72286;SDS011;60221;45.696;16.076;2022-08-27T14:07:25;12.60;;;5.00;;
72286;SDS011;60221;45.696;16.076;2022-08-27T14:12:36;10.90;;;4.97;;
72286;SDS011;60221;45.696;16.076;2022-08-27T14:18:02;12.00;;;4.35;;
72286;SDS011;60221;45.696;16.076;2022-08-27T14:20:32;10.58;;;4.58;;
72286;SDS011;60221;45.696;16.076;2022-08-27T14:22:59;16.15;;;4.87;;
72286;SDS011;60221;45.696;16.076;2022-08-27T14:25:26;18.05;;;5.45;;
72286;SDS011;60221;45.696;16.076;2022-08-27T14:27:53;8.40;;;4.70;;
72286;SDS011;60221;45.696;16.076;2022-08-27T14:30:22;11.45;;;4.55;;
72286;SDS011;60221;45.696;16.076;2022-08-27T14:32:50;9.80;;;4.65;;
72286;SDS011;60221;45.696;16.076;2022-08-27T14:35:18;11.60;;;5.22;;
72286;SDS011;60221;45.696;16.076;2022-08-27T14:37:44;12.65;;;4.58;;
72286;SDS011;60221;45.696;16.076;2022-08-27T14:40:11;12.67;;;4.83;;
72286;SDS011;60221;45.696;16.076;2022-08-27T14:42:39;11.45;;;4.47;;
72286;SDS011;60221;45.696;16.076;2022-08-27T14:45:06;13.13;;;4.90;;
72286;SDS011;60221;45.696;16.076;2022-08-27T14:47:34;10.58;;;4.60;;
72286;SDS011;60221;45.696;16.076;2022-08-27T14:50:10;10.80;;;4.75;;
72286;SDS011;60221;45.696;16.076;2022-08-27T14:52:35;12.10;;;5.00;;
72286;SDS011;60221;45.696;16.076;2022-08-27T14:55:04;12.60;;;5.17;;
72286;SDS011;60221;45.696;16.076;2022-08-27T14:57:31;10.88;;;4.58;;
72286;SDS011;60221;45.696;16.076;2022-08-27T14:59:57;12.33;;;4.67;;
72286;SDS011;60221;45.696;16.076;2022-08-27T15:02:23;14.53;;;4.90;;
72286;SDS011;60221;45.696;16.076;2022-08-27T15:04:50;15.50;;;4.75;;
72286;SDS011;60221;45.696;16.076;2022-08-27T15:07:16;14.40;;;5.28;;
72286;SDS011;60221;45.696;16.076;2022-08-27T15:09:44;12.70;;;5.20;;
72286;SDS011;60221;45.696;16.076;2022-08-27T15:12:11;11.87;;;5.63;;
72286;SDS011;60221;45.696;16.076;2022-08-27T15:14:39;13.40;;;5.20;;
72286;SDS011;60221;45.696;16.076;2022-08-27T15:17:08;12.90;;;4.42;;
72286;SDS011;60221;45.696;16.076;2022-08-27T15:19:34;10.72;;;4.50;;
72286;SDS011;60221;45.696;16.076;2022-08-27T15:22:02;10.38;;;3.98;;
72286;SDS011;60221;45.696;16.076;2022-08-27T15:24:48;15.43;;;4.33;;
72286;SDS011;60221;45.696;16.076;2022-08-27T15:27:21;12.47;;;4.40;;
72286;SDS011;60221;45.696;16.076;2022-08-27T15:29:49;13.48;;;4.25;;
72286;SDS011;60221;45.696;16.076;2022-08-27T15:32:17;13.35;;;4.60;;
72286;SDS011;60221;45.696;16.076;2022-08-27T15:34:53;10.95;;;3.95;;
72286;SDS011;60221;45.696;16.076;2022-08-27T15:37:21;12.23;;;4.50;;
72286;SDS011;60221;45.696;16.076;2022-08-27T15:39:48;12.30;;;3.98;;
72286;SDS011;60221;45.696;16.076;2022-08-27T15:42:14;11.45;;;4.62;;
72286;SDS011;60221;45.696;16.076;2022-08-27T15:44:46;13.32;;;4.22;;
72286;SDS011;60221;45.696;16.076;2022-08-27T15:47:13;12.40;;;3.87;;
72286;SDS011;60221;45.696;16.076;2022-08-27T15:49:39;13.13;;;4.43;;
72286;SDS011;60221;45.696;16.076;2022-08-27T15:52:06;11.57;;;4.80;;
72286;SDS011;60221;45.696;16.076;2022-08-27T15:54:36;15.10;;;4.70;;
72286;SDS011;60221;45.696;16.076;2022-08-27T15:57:04;18.73;;;5.17;;
72286;SDS011;60221;45.696;16.076;2022-08-27T15:59:31;14.33;;;4.67;;
72286;SDS011;60221;45.696;16.076;2022-08-27T16:01:58;14.53;;;4.63;;
72286;SDS011;60221;45.696;16.076;2022-08-27T16:04:26;8.75;;;4.78;;
72286;SDS011;60221;45.696;16.076;2022-08-27T16:06:53;9.63;;;4.37;;
72286;SDS011;60221;45.696;16.076;2022-08-27T16:09:20;12.18;;;4.33;;
72286;SDS011;60221;45.696;16.076;2022-08-27T16:11:47;15.70;;;5.35;;
72286;SDS011;60221;45.696;16.076;2022-08-27T16:14:13;11.57;;;4.67;;
72286;SDS011;60221;45.696;16.076;2022-08-27T16:16:41;10.90;;;4.30;;
72286;SDS011;60221;45.696;16.076;2022-08-27T16:19:13;18.80;;;5.45;;
72286;SDS011;60221;45.696;16.076;2022-08-27T16:21:44;19.50;;;4.90;;
72286;SDS011;60221;45.696;16.076;2022-08-27T16:24:11;11.88;;;4.60;;
72286;SDS011;60221;45.696;16.076;2022-08-27T16:26:38;13.47;;;4.87;;
72286;SDS011;60221;45.696;16.076;2022-08-27T16:29:04;13.72;;;5.20;;